Beatty, Nevada Weather observations

Data are for observation ending at time listed.
 Day   Time    Ave.   Ave.  Ave.  Vector   Max.   Stn.    Total    Solar   Ave.  
  of    of     Air    Rel.  Wind   Wind    Wind   Baro.  Precip.   Rad.    Soil  
Year   Day     Temp.  Hum.  Speed  Dir.    Gust   Pres.                    Temp. 
2016   (PST)    F      %     mph   deg.    mph     mb.     in.     W/m2     F   
------------------------------------------------------------------------------
 121   10:40   60.6    38   13.4     7     26.3   894.6    0.00     273    59.7
 121   10:50   60.8    38   10.0    16     21.6   894.6    0.00     276    59.6
 121   11:00   60.8    38    9.5     8     18.1   894.6    0.00     224    59.6
 121   11:10   61.0    36    9.7    20     20.8   894.5    0.00     203    59.6
 121   11:20   61.1    35    8.6    29     17.2   894.5    0.00     238    59.6
 121   11:30   61.5    34    8.6    20     21.8   894.4    0.00     239    59.6
 121   11:40   61.4    34    9.7    20     19.5   894.5    0.00     216    59.5
 121   11:50   61.0    38   10.3    16     21.5   894.6    0.00     236    59.5
 121   12:00   60.6    40    7.1    27     18.0   894.7    0.00     460    59.5
 121   12:10   62.2    37    8.3    25     17.2   894.7    0.00     403    59.5
 121   12:20   61.2    38    9.2    22     21.3   894.8    0.00     238    59.5
 121   12:30   60.6    39    8.1    14     18.0   894.7    0.00     206    59.5
 121   12:40   60.7    40    7.7    11     17.8   894.7    0.00     192    59.5
 121   12:50   61.4    38    7.2    20     12.8   894.7    0.00     181    59.5
 121   13:00   61.6    38    9.1    12     18.4   894.7    0.00     220    59.5
 121   13:10   60.8    42   14.3     3     25.4   894.7    0.00     289    59.5
 121   13:20   60.9    40   14.0     3     25.6   894.6    0.00     450    59.5
 121   13:30   62.2    38   10.4     6     20.0   894.6    0.00     552    59.5
 121   13:40   62.7    37   11.1     7     23.6   894.5    0.00     513    59.6
 121   13:50   63.4    36   10.5     7     18.6   894.4    0.00     532    59.6
 121   14:00   63.7    34   12.7     0     21.0   894.2    0.00     378    59.6
 121   14:10   64.1    32   13.2     3     22.9   894.1    0.00     377    59.6
 121   14:20   64.7    31   10.8    11     22.1   893.9    0.00     235    59.6
 121   14:30   65.0    29   10.7     9     21.4   893.8    0.00     426    59.6
 121   14:40   67.0    27   11.6     6     24.0   893.7    0.00     686    59.6
 121   14:50   66.8    27   10.3    12     19.6   893.7    0.00     561    59.6
 121   15:00   67.1    28   10.8     6     21.0   893.6    0.00     305    59.6
 121   15:10   66.1    27   13.5     4     26.7   893.5    0.00     256    59.6
 121   15:20   66.8    26   10.6    16     23.7   893.6    0.00     344    59.7
 121   15:30   66.5    26    8.6    32     18.0   893.7    0.00     204    59.7
 121   15:40   66.2    27    8.5    25     17.9   893.6    0.00     159    59.7
 121   15:50   66.1    27    7.8    28     15.6   893.7    0.00     136    59.7
 121   16:00   66.0    27    6.8    30     15.8   893.8    0.00     135    59.7
 121   16:10   66.0    28    5.7    20     11.8   893.8    0.00      97    59.8
 121   16:20   66.0    27    7.1    24     15.9   893.8    0.00      96    59.8
 121   16:30   66.0    27    8.5    14     15.4   893.8    0.00     100    59.8
 121   16:40   66.1    27    7.0    31     14.8   893.8    0.00      86    59.8
 121   16:50   66.1    27    6.4    17     16.1   893.7    0.00      84    59.8
 121   17:00   66.2    26    7.6    12     15.1   893.7    0.00      84    59.9
 121   17:10   66.3    26    8.1    12     17.8   893.6    0.00      83    59.9
 121   17:20   66.3    26   11.6     1     20.0   893.6    0.00      64    59.9
 121   17:30   66.1    25   13.3     3     20.6   893.7    0.00      38    59.9
 121   17:40   66.1    26    9.3     4     18.9   893.8    0.00      33    60.0
 121   17:50   65.9    26    9.6     2     17.1   893.9    0.00      22    60.0
 121   18:00   65.3    27    8.4    10     19.2   894.0    0.00      15    60.0
 121   18:10   65.2    27    7.1    11     18.6   894.2    0.00      12    60.0
 121   18:20   65.3    26    9.1    11     19.4   894.3    0.00       6    60.0
 121   18:30   65.0    28    6.2    22     12.3   894.4    0.00       3    60.1
 121   18:40   64.5    28    6.8     2     12.6   894.6    0.00       2    60.1
 121   18:50   64.3    29    5.1    20     10.4   894.7    0.00       0    60.1
 121   19:00   64.1    28    6.4    16     13.2   894.7    0.00       0    60.1
 121   19:10   63.9    29    6.1   359     11.8   894.9    0.00       0    60.2
 121   19:20   63.6    29    4.9     8      9.9   895.0    0.00       0    60.2
 121   19:30   63.3    30    3.7    25      7.7   895.2    0.00       0    60.2
 121   19:40   62.1    33    3.6    21      7.7   895.3    0.00       0    60.2
 121   19:50   61.3    35    4.8    23      9.8   895.6    0.00       0    60.3
 121   20:00   60.7    38    4.5    27     10.3   896.0    0.00       0    60.3
 121   20:10   60.2    39    5.1     8     11.1   896.1    0.00       0    60.3
 121   20:20   60.2    38    6.0     2     10.9   896.1    0.00       0    60.3
 121   20:30   60.2    37    6.2     3     10.4   896.2    0.00       0    60.4
 121   20:40   59.9    39    5.9   360      9.5   896.3    0.00       0    60.4
 121   20:50   60.1    38    6.4     4      9.6   896.4    0.00       0    60.4
 121   21:00   60.2    38    6.4     5      9.9   896.5    0.00       0    60.4
 121   21:10   60.0    39    3.5    21      7.0   896.6    0.00       0    60.4
 121   21:20   59.6    40    2.9    37      6.1   896.8    0.00       0    60.4
 121   21:30   58.3    44    2.6    28      5.0   896.8    0.00       0    60.4
 121   21:40   57.8    46    2.7    30      6.5   896.9    0.00       0    60.4
 121   21:50   57.3    47    2.8    27      6.4   896.9    0.00       0    60.4
 121   22:00   57.6    43    4.9    15     10.5   896.9    0.00       0    60.4
 121   22:10   59.1    37    8.8     2     14.8   896.9    0.00       0    60.4
 121   22:20   58.8    38    8.9     1     13.3   896.9    0.00       0    60.4
 121   22:30   58.2    40    7.8     6     14.0   897.0    0.00       0    60.5
 121   22:40   57.8    40    5.3     5     11.3   897.1    0.00       0    60.5
 121   22:50   57.8    40    3.4    31      6.4   897.3    0.00       0    60.5
 121   23:00   57.9    40    3.5    27      6.9   897.3    0.00       0    60.5
 121   23:10   57.9    40    4.3    33      9.7   897.4    0.00       0    60.5
 121   23:20   57.7    40    4.0     9      7.5   897.4    0.00       0    60.5
 121   23:30   57.1    42    2.9    20      6.8   897.4    0.00       0    60.5
 121   23:40   57.2    41    4.1    18      9.8   897.5    0.00       0    60.5
 121   23:50   57.7    40    7.0     6     14.2   897.5    0.00       0    60.5
 122    0:00   57.6    40    4.9    11      9.5   897.6    0.00       0    60.5
 122    0:10   57.4    40    8.3     5     13.2   897.6    0.00       0    60.5
 122    0:20   57.4    40    7.9     6     12.9   897.6    0.00       0    60.5
 122    0:30   57.2    40    7.6     3     13.5   897.6    0.00       0    60.5
 122    0:40   56.7    41    5.5     7     10.9   897.6    0.00       0    60.5
 122    0:50   56.0    42    3.5    19      6.6   897.5    0.00       0    60.5
 122    1:00   55.7    42    3.1    31      6.9   897.4    0.00       0    60.5
 122    1:10   55.4    43    3.7    20      7.7   897.4    0.00       0    60.5
 122    1:20   55.2    44    3.4    33      8.3   897.4    0.00       0    60.5
 122    1:30   53.6    47    3.7    52      9.0   897.3    0.00       0    60.5
 122    1:40   53.0    48    4.6    47      9.6   897.3    0.00       0    60.5
 122    1:50   52.7    49    3.9    24      8.6   897.3    0.00       0    60.5
 122    2:00   53.1    48    4.7     6     11.0   897.4    0.00       0    60.5
 122    2:10   52.9    48    3.6    29      7.2   897.4    0.00       0    60.5
 122    2:20   51.9    50    4.2    61      8.6   897.5    0.00       0    60.5
 122    2:30   52.2    49    4.1    67     10.2   897.5    0.00       0    60.5
 122    2:40   52.0    50    3.7    59      8.2   897.6    0.00       0    60.4
 122    2:50   51.9    50    2.8    34      7.1   897.5    0.00       0    60.4
 122    3:00   51.6    50    4.8    84     11.8   897.5    0.00       0    60.4
 122    3:10   51.8    50    2.7    41      6.6   897.6    0.00       0    60.4
 122    3:20   50.7    53    2.3    26      5.9   897.7    0.00       0    60.4
 122    3:30   51.3    50    3.2    64      7.3   897.8    0.00       0    60.4
 122    3:40   51.2    50    2.9    43      8.2   897.7    0.00       0    60.4
 122    3:50   51.8    49    4.7    81     10.1   897.8    0.00       0    60.4
 122    4:00   52.0    48    3.7    68      8.3   897.8    0.00       0    60.4
 122    4:10   51.3    50    3.6    53      8.8   897.8    0.00       0    60.3
 122    4:20   50.9    51    4.4    76      8.7   897.8    0.00       0    60.3
 122    4:30   51.2    50    4.3    71      9.4   897.8    0.00       0    60.3
 122    4:40   50.9    51    3.7    61      7.7   898.0    0.00       0    60.3
 122    4:50   50.6    51    2.5    48      5.9   898.0    0.00       0    60.3
 122    5:00   48.7    56    4.1     8      8.4   898.0    0.00       4    60.3
 122    5:10   48.4    56    3.4     4      8.9   898.0    0.00       7    60.3
 122    5:20   49.6    53    4.0    18      8.9   898.2    0.00      12    60.2
 122    5:30   49.5    54    4.5    30      9.9   898.4    0.00      14    60.2
 122    5:40   49.0    56    3.7    29      8.2   898.4    0.00      29    60.2
 122    5:50   50.0    54    3.6    55     10.0   898.5    0.00     101    60.2
 122    6:00   51.9    49    4.8    75      9.1   898.6    0.00     122    60.1
 122    6:10   53.3    47    2.5    68      6.7   898.7    0.00     149    60.1
 122    6:20   54.2    45    4.8    84      9.3   898.7    0.00     102    60.0
 122    6:30   54.9    43    5.3    85     12.2   899.0    0.00      36    60.0
 122    6:40   56.0    42    3.6    62      7.5   899.0    0.00      35    60.0
 122    6:50   55.9    42    3.9    66      9.1   898.9    0.00      41    60.0
 122    7:00   56.4    40    4.0    13      8.3   898.9    0.00      33    60.0
 122    7:10   57.2    38    5.4    10     12.0   899.0    0.00      75    60.0
 122    7:20   57.5    38    4.6    16      9.6   898.9    0.00      79    60.0
 122    7:30   58.0    37    5.0    42     10.7   898.9    0.00     290    59.9
 122    7:40   58.3    37    5.0    22     10.8   899.0    0.00     412    59.9
 122    7:50   59.3    36    4.0    31      8.3   899.0    0.00     438    59.9
 122    8:00   59.8    35    4.7    30     11.5   899.1    0.00     464    59.9
 122    8:10   59.6    36    5.3    16     14.0   899.0    0.00     489    59.8
 122    8:20   59.7    36    6.3    12     10.5   898.9    0.00     513    59.8
 122    8:30   60.5    35    5.6     9     11.0   898.9    0.00     538    59.8
 122    8:40   61.0    34    5.4     9     12.9   898.8    0.00     561    59.8
 122    8:50   62.0    33    6.3     1     11.5   898.8    0.00     582    59.8
 122    9:00   62.5    32    4.1     4     11.7   898.7    0.00     605    59.8
 122    9:10   63.6    31    4.1   354      8.0   898.8    0.00     623    59.7
 122    9:20   64.4    30    2.5     7      7.2   898.8    0.00     644    59.7
 122    9:30   65.2    29    3.5    11      6.8   898.8    0.00     661    59.6
 122    9:40   65.5    28    3.4    30      6.4   898.8    0.00     682    59.6
 122    9:50   66.4    27    1.8   115      4.5   898.7    0.00     712    59.7
 122   10:00   65.6    28    3.4   357     10.3   898.7    0.00     460    59.6
 122   10:10   65.8    28    2.5    43      5.0   898.7    0.00     681    59.6
 122   10:20   67.1    26    1.7   110      4.9   898.7    0.00     474    59.6
 122   10:30   67.0    26    2.4   187      5.9   898.7    0.00     717    59.7

Return to Beatty, Nevada graphs page.


Western Regional Climate Center,wrcc@dri.edu